Time;durP1;ratioP1;P1;durP2;ratioP2;P2;SDS_P1;SDS_P2;PMS_P1;PMS_P2;Temp;Humidity;BMP_temperature;BMP_pressure;BME280_temperature;BME280_humidity;BME280_pressure;Samples;Min_cycle;Max_cycle;Signal;HPM_P1;HPM_P2
2022/10/29 00:02:09;;;;;;;12.05;3.35;;;11.40;99.90;;;;;;5114880;28;20578;-95
2022/10/29 00:04:38;;;;;;;11.85;3.47;;;11.40;99.90;;;;;;5114700;28;20087;-95
2022/10/29 00:07:03;;;;;;;15.77;3.63;;;11.40;99.90;;;;;;5114598;28;20024;-95
2022/10/29 00:09:30;;;;;;;7.35;2.58;;;11.50;99.90;;;;;;5114205;28;20055;-94
2022/10/29 00:11:55;;;;;;;17.83;3.63;;;11.40;99.90;;;;;;5114197;28;20028;-95
2022/10/29 00:14:21;;;;;;;17.70;4.97;;;11.50;99.90;;;;;;5115263;28;20024;-94
2022/10/29 00:16:47;;;;;;;12.85;4.00;;;11.50;99.90;;;;;;5118073;28;20031;-95
2022/10/29 00:19:12;;;;;;;20.27;4.80;;;11.50;99.90;;;;;;5120846;28;20055;-95
2022/10/29 00:21:39;;;;;;;18.90;5.03;;;11.50;99.90;;;;;;5116628;28;20380;-94
2022/10/29 00:24:05;;;;;;;26.98;5.55;;;11.50;99.90;;;;;;5115783;28;20034;-94
2022/10/29 00:26:31;;;;;;;30.05;6.65;;;11.50;99.90;;;;;;5102214;28;20035;-92
2022/10/29 00:28:57;;;;;;;23.20;6.30;;;11.50;99.90;;;;;;5093485;28;20481;-95
2022/10/29 00:31:23;;;;;;;23.98;6.00;;;11.60;99.90;;;;;;5092573;28;20028;-94
2022/10/29 00:33:51;;;;;;;16.63;5.72;;;11.60;99.90;;;;;;5104122;28;20047;-94
2022/10/29 00:36:20;;;;;;;16.10;3.53;;;11.60;99.90;;;;;;5091809;28;20036;-93
2022/10/29 00:38:47;;;;;;;24.40;6.23;;;11.60;99.90;;;;;;5094588;28;20056;-94
2022/10/29 00:41:16;;;;;;;24.60;6.60;;;11.60;99.90;;;;;;5097701;28;20032;-96
2022/10/29 00:44:24;;;;;;;21.25;5.75;;;11.70;99.90;;;;;;5096483;28;20169;-94
2022/10/29 00:47:18;;;;;;;22.30;4.68;;;11.70;99.90;;;;;;5096981;28;20706;-94
2022/10/29 00:50:08;;;;;;;11.70;4.53;;;11.70;99.90;;;;;;5095991;28;20024;-94
2022/10/29 00:52:40;;;;;;;29.25;5.38;;;11.70;99.90;;;;;;5092226;28;20036;-94
2022/10/29 00:55:08;;;;;;;22.67;7.10;;;11.80;99.90;;;;;;5096525;28;20086;-94
2022/10/29 00:57:40;;;;;;;15.95;5.70;;;11.80;99.90;;;;;;5095147;28;20132;-93
2022/10/29 01:00:06;;;;;;;19.80;5.28;;;11.80;99.90;;;;;;5095973;28;20031;-94
2022/10/29 01:02:34;;;;;;;23.13;4.50;;;11.80;99.90;;;;;;5095083;28;20064;-94
2022/10/29 01:05:03;;;;;;;20.48;5.72;;;11.80;99.90;;;;;;5095356;28;20058;-94
2022/10/29 01:07:29;;;;;;;19.15;5.88;;;11.80;99.90;;;;;;5095468;28;20028;-94
2022/10/29 01:09:54;;;;;;;26.92;6.60;;;11.80;99.90;;;;;;5095162;28;20435;-94
2022/10/29 01:12:47;;;;;;;21.73;6.47;;;11.80;99.90;;;;;;5095201;28;20028;-95
2022/10/29 01:15:35;;;;;;;16.60;5.75;;;11.80;99.90;;;;;;5095073;28;20148;-93
2022/10/29 01:18:07;;;;;;;21.75;6.43;;;11.80;99.90;;;;;;5095102;28;20031;-94
2022/10/29 01:20:39;;;;;;;30.02;6.20;;;11.80;99.90;;;;;;5095560;28;20028;-93
2022/10/29 01:23:30;;;;;;;32.53;5.53;;;11.80;99.90;;;;;;5095194;28;20431;-94
2022/10/29 01:26:11;;;;;;;21.20;6.22;;;11.80;99.90;;;;;;5095216;28;20050;-95
2022/10/29 01:29:03;;;;;;;27.75;6.75;;;11.80;99.90;;;;;;5095481;28;20040;-94
2022/10/29 01:31:50;;;;;;;24.73;6.15;;;11.80;99.90;;;;;;5096104;28;20024;-93
2022/10/29 01:34:30;;;;;;;9.40;4.13;;;11.80;99.90;;;;;;5095521;28;20020;-95
2022/10/29 01:37:02;;;;;;;25.88;7.80;;;11.80;99.90;;;;;;5094958;28;20024;-95
2022/10/29 01:39:55;;;;;;;23.42;6.28;;;11.80;99.90;;;;;;5096809;28;20098;-94
2022/10/29 01:42:38;;;;;;;22.52;5.85;;;11.90;99.90;;;;;;5095810;28;20385;-94
2022/10/29 01:45:25;;;;;;;15.73;5.68;;;11.80;99.90;;;;;;5095226;28;20130;-94
2022/10/29 01:47:59;;;;;;;19.70;6.35;;;11.70;99.90;;;;;;5095368;28;20427;-94
2022/10/29 01:50:25;;;;;;;20.77;5.90;;;11.70;99.90;;;;;;5095812;28;20043;-95
2022/10/29 01:52:53;;;;;;;19.83;5.15;;;11.60;99.90;;;;;;5096981;28;20059;-92
2022/10/29 01:55:20;;;;;;;24.30;5.80;;;11.60;99.90;;;;;;5096510;28;20111;-94
2022/10/29 01:57:46;;;;;;;17.20;5.85;;;11.60;99.90;;;;;;5095225;28;20489;-94
2022/10/29 02:00:17;;;;;;;17.55;4.82;;;11.60;99.90;;;;;;5095026;28;20027;-96
2022/10/29 02:03:17;;;;;;;13.43;3.97;;;11.60;99.90;;;;;;5096611;28;20048;-94
2022/10/29 02:06:14;;;;;;;16.85;4.63;;;11.60;99.90;;;;;;5094380;28;20397;-94
2022/10/29 02:09:06;;;;;;;10.13;4.20;;;11.60;99.90;;;;;;5094390;28;20032;-94
2022/10/29 02:11:41;;;;;;;18.17;4.40;;;11.60;99.90;;;;;;5095008;28;20024;-93
2022/10/29 02:14:14;;;;;;;17.58;5.05;;;11.60;99.90;;;;;;5094287;28;20031;-94
2022/10/29 02:16:41;;;;;;;20.60;5.50;;;11.60;99.90;;;;;;5094694;28;20032;-94
2022/10/29 02:19:06;;;;;;;20.92;5.65;;;11.50;99.90;;;;;;5097800;28;20032;-94
2022/10/29 02:21:32;;;;;;;20.88;5.45;;;11.50;99.90;;;;;;5097590;28;20050;-94
2022/10/29 02:23:58;;;;;;;18.77;5.88;;;11.50;99.90;;;;;;5095129;28;20404;-94
2022/10/29 02:26:23;;;;;;;23.85;4.97;;;11.50;99.90;;;;;;5093900;28;20497;-95
2022/10/29 02:28:49;;;;;;;17.35;4.85;;;11.50;99.90;;;;;;5094274;28;20024;-94
2022/10/29 02:31:15;;;;;;;11.95;3.65;;;11.50;99.90;;;;;;5094177;28;20020;-94
2022/10/29 02:33:40;;;;;;;16.27;4.07;;;11.50;99.90;;;;;;5093398;28;20047;-95
2022/10/29 02:36:10;;;;;;;29.60;7.60;;;11.50;99.90;;;;;;5093865;28;20031;-94
2022/10/29 02:38:35;;;;;;;19.17;5.70;;;11.60;99.90;;;;;;5093749;28;20031;-94
2022/10/29 02:41:01;;;;;;;24.40;6.15;;;11.60;99.90;;;;;;5094054;28;20530;-95
2022/10/29 02:43:26;;;;;;;17.60;6.13;;;11.60;99.90;;;;;;5094573;28;20035;-93
2022/10/29 02:46:18;;;;;;;20.70;6.22;;;11.60;99.90;;;;;;5094201;28;20024;-94
2022/10/29 02:48:44;;;;;;;19.73;5.90;;;11.60;99.90;;;;;;5093991;28;20096;-94
2022/10/29 02:51:10;;;;;;;20.02;5.78;;;11.60;99.90;;;;;;5093855;28;20051;-95
2022/10/29 02:53:37;;;;;;;17.15;5.70;;;11.50;99.90;;;;;;5093938;28;20024;-95
2022/10/29 02:56:04;;;;;;;17.48;5.53;;;11.50;99.90;;;;;;5094203;28;20020;-94
2022/10/29 02:58:30;;;;;;;14.85;4.93;;;11.50;99.90;;;;;;5077616;28;20058;-96
2022/10/29 03:00:55;;;;;;;31.60;6.15;;;11.40;99.90;;;;;;5079123;28;20260;-94
2022/10/29 03:03:21;;;;;;;25.75;5.93;;;11.40;99.90;;;;;;5081251;28;20020;-96
2022/10/29 03:05:47;;;;;;;17.85;5.90;;;11.40;99.90;;;;;;5077448;28;20492;-93
2022/10/29 03:08:14;;;;;;;21.85;5.25;;;11.40;99.90;;;;;;5077221;28;20056;-95
2022/10/29 03:10:41;;;;;;;17.30;5.45;;;11.40;99.90;;;;;;5078240;28;20032;-94
2022/10/29 03:13:07;;;;;;;19.17;5.90;;;11.40;99.90;;;;;;5077393;28;20036;-95
2022/10/29 03:15:32;;;;;;;15.65;4.93;;;11.30;99.90;;;;;;5077412;28;20029;-95
2022/10/29 03:18:02;;;;;;;22.35;5.57;;;11.30;99.90;;;;;;5077123;28;20028;-94
2022/10/29 03:20:27;;;;;;;18.20;5.72;;;11.20;99.90;;;;;;5078686;28;20473;-93
2022/10/29 03:22:54;;;;;;;22.85;5.82;;;11.20;99.90;;;;;;5077962;28;20024;-95
2022/10/29 03:25:22;;;;;;;22.75;5.10;;;11.20;99.90;;;;;;5095126;28;20025;-94
2022/10/29 03:27:49;;;;;;;10.65;4.57;;;11.10;99.90;;;;;;5078894;28;20020;-95
2022/10/29 03:30:16;;;;;;;17.35;4.05;;;11.10;99.90;;;;;;5045510;28;20031;-95
2022/10/29 03:32:44;;;;;;;15.07;5.28;;;11.20;99.90;;;;;;5079379;28;20047;-94
2022/10/29 03:35:14;;;;;;;18.90;6.25;;;11.10;99.90;;;;;;5065262;28;20039;-95
2022/10/29 03:37:40;;;;;;;20.98;6.00;;;11.10;99.90;;;;;;5079477;28;20116;-94
2022/10/29 03:40:11;;;;;;;19.48;5.45;;;11.10;99.90;;;;;;5077704;28;20024;-94
2022/10/29 03:42:40;;;;;;;17.70;5.38;;;11.10;99.90;;;;;;5076146;28;20120;-94
2022/10/29 03:45:06;;;;;;;17.13;6.10;;;11.20;99.90;;;;;;5093764;28;20024;-94
2022/10/29 03:47:34;;;;;;;18.55;6.68;;;11.20;99.90;;;;;;5076944;28;20481;-95
2022/10/29 03:50:01;;;;;;;23.30;5.30;;;11.20;99.90;;;;;;5077383;28;20480;-94
2022/10/29 03:52:31;;;;;;;14.43;4.20;;;11.20;99.90;;;;;;5079526;28;20077;-94
2022/10/29 03:54:59;;;;;;;12.20;4.72;;;11.20;99.90;;;;;;5077093;28;20032;-94
2022/10/29 03:57:26;;;;;;;25.75;6.85;;;11.30;99.90;;;;;;5065021;28;20047;-94
2022/10/29 03:59:52;;;;;;;30.85;5.55;;;11.30;99.90;;;;;;5093290;28;20024;-95
2022/10/29 04:02:17;;;;;;;18.23;5.68;;;11.30;99.90;;;;;;5076203;28;20562;-93
2022/10/29 04:04:44;;;;;;;12.27;3.78;;;11.30;99.90;;;;;;5093137;28;20055;-95
2022/10/29 04:07:11;;;;;;;17.35;5.20;;;11.30;99.90;;;;;;5094134;28;20031;-94
2022/10/29 04:09:36;;;;;;;15.05;5.05;;;11.40;99.90;;;;;;5093934;28;20020;-94
2022/10/29 04:12:02;;;;;;;28.05;4.78;;;11.40;99.90;;;;;;5095269;28;20051;-94
2022/10/29 04:14:28;;;;;;;20.42;6.75;;;11.30;99.90;;;;;;5102834;28;20121;-93
2022/10/29 04:16:54;;;;;;;14.55;5.45;;;11.30;99.90;;;;;;5099293;28;20066;-94
2022/10/29 04:19:19;;;;;;;19.15;5.80;;;11.30;99.90;;;;;;5080390;28;20032;-96
2022/10/29 04:21:46;;;;;;;13.57;4.10;;;11.20;99.90;;;;;;5098310;28;20028;-95
2022/10/29 04:24:11;;;;;;;15.65;5.65;;;11.20;99.90;;;;;;5096093;28;20024;-95
2022/10/29 04:26:37;;;;;;;17.10;5.30;;;11.20;99.90;;;;;;5102241;28;20039;-93
2022/10/29 04:29:03;;;;;;;17.10;5.10;;;11.20;99.90;;;;;;5109452;28;20037;-94
2022/10/29 04:31:30;;;;;;;19.75;4.63;;;11.20;99.90;;;;;;5098715;28;20034;-94
2022/10/29 04:33:56;;;;;;;11.80;3.42;;;11.10;99.90;;;;;;5111674;28;20051;-94
2022/10/29 04:36:22;;;;;;;14.48;4.85;;;11.20;99.90;;;;;;5118875;28;20373;-94
2022/10/29 04:38:49;;;;;;;11.75;5.00;;;11.10;99.90;;;;;;5118567;28;20111;-94
2022/10/29 04:41:15;;;;;;;20.65;5.93;;;11.10;99.90;;;;;;5118893;28;20027;-95
2022/10/29 04:43:40;;;;;;;19.17;6.05;;;11.10;99.90;;;;;;5124290;28;20036;-93
2022/10/29 04:46:06;;;;;;;19.60;6.15;;;11.20;99.90;;;;;;5132747;28;20070;-94
2022/10/29 04:48:32;;;;;;;14.45;5.40;;;11.10;99.90;;;;;;5133341;28;20004;-94
2022/10/29 04:50:57;;;;;;;26.75;5.85;;;11.10;99.90;;;;;;5132557;28;20156;-93
2022/10/29 04:53:23;;;;;;;23.58;6.38;;;11.10;99.90;;;;;;5134120;28;20030;-94
2022/10/29 04:55:49;;;;;;;16.95;6.03;;;11.10;99.90;;;;;;5130794;28;20059;-94
2022/10/29 04:58:18;;;;;;;22.50;5.60;;;11.10;99.90;;;;;;5122182;28;20180;-94
2022/10/29 05:00:44;;;;;;;19.73;6.10;;;11.00;99.90;;;;;;5117337;28;20028;-95
2022/10/29 05:03:10;;;;;;;20.65;5.63;;;11.00;99.90;;;;;;5117820;28;20051;-93
2022/10/29 05:05:38;;;;;;;23.88;5.78;;;11.00;99.90;;;;;;5117497;28;20137;-94
2022/10/29 05:08:04;;;;;;;19.52;5.53;;;11.00;99.90;;;;;;5118428;28;20016;-94
2022/10/29 05:10:35;;;;;;;29.60;6.45;;;11.00;99.90;;;;;;5118687;28;20032;-94
2022/10/29 05:13:02;;;;;;;;;;;10.90;99.90;;;;;;5118360;28;20095;-95
2022/10/29 05:15:29;;;;;;;19.23;5.65;;;10.90;99.90;;;;;;5118362;28;19947;-93
2022/10/29 05:17:56;;;;;;;20.70;6.93;;;10.80;99.90;;;;;;5117774;28;20048;-95
2022/10/29 05:20:22;;;;;;;15.70;6.22;;;10.90;99.90;;;;;;5117401;28;20041;-95
2022/10/29 05:22:48;;;;;;;17.70;6.05;;;10.80;99.90;;;;;;5117256;28;20027;-94
2022/10/29 05:25:14;;;;;;;11.07;4.85;;;10.80;99.90;;;;;;5116014;28;20062;-95
2022/10/29 05:27:40;;;;;;;21.52;5.35;;;10.80;99.90;;;;;;5117391;28;20027;-96
2022/10/29 05:30:06;;;;;;;15.57;4.50;;;10.80;99.90;;;;;;5118316;28;20099;-93
2022/10/29 05:32:32;;;;;;;15.00;5.75;;;10.80;99.90;;;;;;5117094;28;20161;-93
2022/10/29 05:34:58;;;;;;;16.70;5.03;;;10.80;99.90;;;;;;5117100;28;20065;-95
2022/10/29 05:37:25;;;;;;;17.33;5.72;;;10.80;99.90;;;;;;5117203;28;20089;-94
2022/10/29 05:39:52;;;;;;;17.33;5.38;;;10.80;99.90;;;;;;5117468;28;20039;-95
2022/10/29 05:42:21;;;;;;;16.05;4.82;;;10.80;99.90;;;;;;5117041;28;20023;-94
2022/10/29 05:44:47;;;;;;;15.43;4.72;;;10.80;99.90;;;;;;5115201;28;20024;-95
2022/10/29 05:47:13;;;;;;;16.95;4.95;;;10.80;99.90;;;;;;5117340;28;20097;-93
2022/10/29 05:49:41;;;;;;;16.70;5.00;;;10.80;99.90;;;;;;5118130;28;20031;-94
2022/10/29 05:52:11;;;;;;;18.75;4.75;;;10.80;99.90;;;;;;5117086;28;20058;-95
2022/10/29 05:54:37;;;;;;;17.17;6.10;;;10.80;99.90;;;;;;5118077;28;20031;-94
2022/10/29 05:57:02;;;;;;;16.08;5.65;;;10.80;99.90;;;;;;5117578;28;20103;-94
2022/10/29 05:59:29;;;;;;;18.73;6.38;;;10.80;99.90;;;;;;5119862;28;20115;-95
2022/10/29 06:01:58;;;;;;;15.15;5.68;;;10.80;99.90;;;;;;5120459;28;20039;-95
2022/10/29 06:04:43;;;;;;;14.25;5.80;;;10.80;99.90;;;;;;5136508;28;20011;-92
2022/10/29 06:07:41;;;;;;;19.17;5.95;;;10.70;99.90;;;;;;5122746;28;20024;-93
2022/10/29 06:10:17;;;;;;;20.17;6.28;;;10.70;99.90;;;;;;5137369;28;20024;-95
2022/10/29 06:13:10;;;;;;;15.80;6.07;;;10.70;99.90;;;;;;5140938;28;20095;-91
2022/10/29 06:15:36;;;;;;;17.63;5.40;;;10.70;99.90;;;;;;5123075;28;20028;-91
2022/10/29 06:18:02;;;;;;;19.83;5.55;;;10.70;99.90;;;;;;5115173;28;20051;-95
2022/10/29 06:20:30;;;;;;;10.75;4.00;;;10.70;99.90;;;;;;5104402;28;20082;-93
2022/10/29 06:23:02;;;;;;;20.02;4.40;;;10.70;99.90;;;;;;5106236;28;20392;-95
2022/10/29 06:26:07;;;;;;;14.70;4.45;;;10.80;99.90;;;;;;5122772;28;20050;-94
2022/10/29 06:29:04;;;;;;;19.88;4.75;;;10.80;99.90;;;;;;5102145;28;20024;-93
2022/10/29 06:31:32;;;;;;;19.90;5.43;;;10.80;99.90;;;;;;5126628;28;20058;-95
2022/10/29 06:34:50;;;;;;;22.35;5.18;;;10.90;99.90;;;;;;5114962;28;20077;-94
2022/10/29 06:40:24;;;;;;;19.38;6.55;;;10.90;99.90;;;;;;5118900;28;20488;-95
2022/10/29 06:43:22;;;;;;;15.20;6.57;;;11.00;99.90;;;;;;5126773;28;20024;-96
2022/10/29 06:49:28;;;;;;;15.98;6.80;;;11.10;99.90;;;;;;5112942;28;20027;-96
2022/10/29 06:51:54;;;;;;;16.05;6.43;;;11.20;99.90;;;;;;5117433;28;20094;-92
2022/10/29 06:54:20;;;;;;;18.60;5.88;;;11.20;99.90;;;;;;5118282;28;20032;-94
2022/10/29 06:56:45;;;;;;;16.00;5.65;;;11.30;99.90;;;;;;5119255;28;20024;-92
2022/10/29 06:59:14;;;;;;;15.57;5.78;;;11.40;99.90;;;;;;5102212;28;20051;-92
2022/10/29 07:01:39;;;;;;;26.55;6.65;;;11.40;99.90;;;;;;5106590;28;20077;-94
2022/10/29 07:04:05;;;;;;;17.52;5.65;;;11.50;99.90;;;;;;5116481;28;20016;-96
2022/10/29 07:06:37;;;;;;;10.63;5.05;;;11.50;99.90;;;;;;5129617;28;20042;-95
2022/10/29 07:09:02;;;;;;;11.85;5.65;;;11.50;99.90;;;;;;5137358;28;20046;-94
2022/10/29 07:11:28;;;;;;;13.13;6.07;;;11.50;99.90;;;;;;5105647;28;20008;-95
2022/10/29 07:14:00;;;;;;;15.75;6.25;;;11.50;99.90;;;;;;5110845;28;20031;-95
2022/10/29 07:16:25;;;;;;;13.60;6.38;;;11.50;99.90;;;;;;5115540;28;20037;-94
2022/10/29 07:18:54;;;;;;;20.25;6.85;;;11.50;99.90;;;;;;5120259;28;20031;-93
2022/10/29 07:21:19;;;;;;;14.05;6.55;;;11.50;99.90;;;;;;5117661;28;20008;-95
2022/10/29 07:23:59;;;;;;;;;;;;;;;;;;;;;
2022/10/29 07:26:25;;;;;;;14.45;4.88;;;11.50;99.90;;;;;;5112749;28;20063;-94
2022/10/29 07:28:55;;;;;;;17.55;6.38;;;11.40;99.90;;;;;;5106284;28;20028;-94
2022/10/29 07:31:21;;;;;;;12.23;6.55;;;11.40;99.90;;;;;;5093457;28;20020;-93
2022/10/29 07:33:47;;;;;;;13.50;5.50;;;11.40;99.90;;;;;;5107318;28;20087;-94
2022/10/29 07:36:12;;;;;;;10.77;5.70;;;11.30;99.90;;;;;;5125371;27;20020;-93
2022/10/29 07:38:38;;;;;;;15.75;4.95;;;11.30;99.90;;;;;;5127867;28;20050;-92
2022/10/29 07:41:04;;;;;;;9.60;4.85;;;11.30;99.90;;;;;;5126297;27;20008;-95
2022/10/29 07:43:29;;;;;;;8.25;4.40;;;11.30;99.90;;;;;;5112128;28;20057;-95
2022/10/29 07:45:55;;;;;;;13.25;4.30;;;11.30;99.90;;;;;;5110446;28;20016;-93
2022/10/29 07:48:21;;;;;;;8.68;4.55;;;11.30;99.90;;;;;;5106145;28;20012;-93
2022/10/29 07:50:47;;;;;;;12.32;4.50;;;11.30;99.90;;;;;;5106760;28;20016;-95
2022/10/29 07:53:13;;;;;;;13.57;4.78;;;11.30;99.90;;;;;;5099233;28;20061;-95
2022/10/29 07:55:39;;;;;;;8.75;5.15;;;11.30;99.90;;;;;;5098755;28;20095;-93
2022/10/29 07:58:10;;;;;;;11.40;5.35;;;11.30;99.90;;;;;;5107589;28;20112;-96
2022/10/29 08:00:38;;;;;;;10.13;5.18;;;11.30;99.90;;;;;;5117126;28;20063;-94
2022/10/29 08:03:05;;;;;;;10.38;4.40;;;11.30;99.90;;;;;;5113199;28;20039;-94
2022/10/29 08:05:31;;;;;;;7.88;4.53;;;11.30;99.90;;;;;;5112645;28;20039;-94
2022/10/29 08:07:56;;;;;;;10.25;3.90;;;11.30;99.90;;;;;;5121017;28;20039;-93
2022/10/29 08:10:24;;;;;;;9.00;4.32;;;11.30;99.90;;;;;;5122729;28;20019;-95
2022/10/29 08:12:55;;;;;;;9.40;4.38;;;11.30;99.90;;;;;;5131267;28;20015;-95
2022/10/29 08:15:21;;;;;;;10.13;4.78;;;11.30;99.90;;;;;;5131418;28;20035;-94
2022/10/29 08:17:47;;;;;;;9.25;4.57;;;11.30;99.90;;;;;;5134501;28;20032;-94
2022/10/29 08:20:15;;;;;;;12.35;4.15;;;11.30;99.90;;;;;;5124582;28;20017;-93
2022/10/29 08:22:41;;;;;;;6.25;2.65;;;11.40;99.90;;;;;;5113602;28;20014;-94
2022/10/29 08:25:07;;;;;;;6.90;2.80;;;11.40;99.90;;;;;;5115677;28;20107;-93
2022/10/29 08:27:33;;;;;;;4.82;2.72;;;11.40;99.90;;;;;;5118995;28;20016;-95
2022/10/29 08:29:58;;;;;;;5.85;2.20;;;11.40;99.90;;;;;;5121558;28;20039;-95
2022/10/29 08:32:24;;;;;;;3.95;2.35;;;11.40;99.90;;;;;;5122500;28;20039;-94
2022/10/29 08:34:50;;;;;;;2.47;1.73;;;11.40;99.90;;;;;;5116542;28;20023;-96
2022/10/29 08:37:15;;;;;;;2.90;1.45;;;11.50;99.90;;;;;;5111842;28;20015;-95
2022/10/29 08:39:41;;;;;;;6.32;2.15;;;11.50;99.90;;;;;;5112946;28;20012;-92
2022/10/29 08:42:07;;;;;;;11.18;2.53;;;11.50;99.90;;;;;;5128391;28;20027;-95
2022/10/29 08:44:44;;;;;;;1.42;0.88;;;11.50;99.90;;;;;;5125484;28;20039;-96
2022/10/29 08:47:22;;;;;;;1.00;0.70;;;11.50;99.90;;;;;;5119639;28;20028;-95
2022/10/29 08:50:15;;;;;;;2.97;0.93;;;11.50;99.90;;;;;;5119311;28;20028;-96
2022/10/29 08:52:43;;;;;;;1.30;1.00;;;11.50;99.90;;;;;;5122956;28;20039;-93
2022/10/29 08:55:17;;;;;;;3.35;1.30;;;11.60;99.90;;;;;;5124272;28;20039;-93
2022/10/29 08:57:53;;;;;;;0.63;0.60;;;11.60;99.90;;;;;;5127045;28;20027;-92
2022/10/29 09:00:22;;;;;;;2.15;0.90;;;11.70;99.90;;;;;;5129244;28;20012;-95
2022/10/29 09:02:57;;;;;;;1.23;0.85;;;11.70;99.90;;;;;;5132203;28;20004;-95
2022/10/29 09:05:37;;;;;;;1.83;1.15;;;11.80;99.90;;;;;;5130178;28;20032;-93
2022/10/29 09:08:23;;;;;;;2.80;1.33;;;11.90;99.90;;;;;;5144123;27;20016;-92
2022/10/29 09:11:00;;;;;;;3.60;1.23;;;12.00;99.90;;;;;;5133404;28;20087;-94
2022/10/29 09:13:44;;;;;;;2.13;1.63;;;12.00;99.90;;;;;;5128718;28;20020;-93
2022/10/29 09:16:41;;;;;;;1.73;1.42;;;12.00;99.90;;;;;;5125816;28;20008;-93
2022/10/29 09:19:44;;;;;;;2.08;1.42;;;12.10;99.90;;;;;;5130448;28;20012;-94
2022/10/29 09:22:28;;;;;;;4.72;2.53;;;12.20;99.90;;;;;;5129345;28;20020;-94
2022/10/29 09:24:57;;;;;;;2.05;1.85;;;12.30;99.90;;;;;;5129438;28;20035;-93
2022/10/29 09:27:34;;;;;;;5.13;2.15;;;12.30;99.90;;;;;;5134093;28;20014;-93
2022/10/29 09:30:09;;;;;;;4.15;2.20;;;12.30;99.90;;;;;;5129387;28;20079;-94
2022/10/29 09:32:37;;;;;;;4.60;2.53;;;12.30;99.90;;;;;;5124428;28;20032;-94
2022/10/29 09:35:19;;;;;;;6.10;2.67;;;12.40;99.90;;;;;;5125619;28;20028;-93
2022/10/29 09:37:53;;;;;;;2.65;2.20;;;12.40;99.90;;;;;;5124811;28;20039;-93
2022/10/29 09:40:40;;;;;;;6.53;4.70;;;12.40;99.90;;;;;;5119637;28;20024;-95
2022/10/29 09:43:27;;;;;;;9.13;3.90;;;12.30;99.90;;;;;;5137659;27;20020;-95
2022/10/29 09:45:59;;;;;;;8.48;3.92;;;12.20;99.90;;;;;;5125806;28;20015;-92
2022/10/29 09:48:33;;;;;;;11.63;4.70;;;12.20;99.90;;;;;;5121717;28;20008;-96
2022/10/29 09:51:07;;;;;;;8.65;4.32;;;12.30;99.90;;;;;;5121802;28;20020;-93
2022/10/29 09:53:33;;;;;;;8.38;4.70;;;12.30;99.90;;;;;;5124072;28;20020;-95
2022/10/29 09:55:59;;;;;;;7.35;4.80;;;12.30;99.90;;;;;;5125907;28;20095;-95
2022/10/29 09:58:26;;;;;;;9.77;6.53;;;12.30;99.90;;;;;;5127891;28;20050;-93
2022/10/29 10:00:55;;;;;;;10.25;6.43;;;12.40;99.90;;;;;;5125842;28;20024;-93
2022/10/29 10:03:28;;;;;;;9.60;6.15;;;12.40;99.90;;;;;;5139136;27;20012;-94
2022/10/29 10:06:05;;;;;;;10.60;6.80;;;12.40;99.90;;;;;;5125795;28;20031;-94
2022/10/29 10:08:32;;;;;;;15.65;7.53;;;12.40;99.90;;;;;;5123478;28;20031;-92
2022/10/29 10:11:14;;;;;;;15.57;9.80;;;12.40;99.90;;;;;;5124719;28;20081;-91
2022/10/29 10:14:09;;;;;;;16.77;8.65;;;12.40;99.90;;;;;;5139690;27;20020;-93
2022/10/29 10:16:36;;;;;;;19.70;10.50;;;12.40;99.90;;;;;;5131716;28;20111;-94
2022/10/29 10:19:02;;;;;;;17.27;11.32;;;12.30;99.90;;;;;;5123508;28;20026;-93
2022/10/29 10:21:32;;;;;;;22.70;11.68;;;12.30;99.90;;;;;;5122035;28;20023;-95
2022/10/29 10:23:59;;;;;;;25.75;12.98;;;12.30;99.90;;;;;;5128867;28;20025;-96
2022/10/29 10:26:47;;;;;;;26.15;12.60;;;12.30;99.90;;;;;;5127391;28;20019;-93
2022/10/29 10:29:23;;;;;;;25.15;13.48;;;12.20;99.90;;;;;;5119248;28;20032;-96
2022/10/29 10:31:54;;;;;;;22.95;12.27;;;12.20;99.90;;;;;;5115476;28;20032;-96
2022/10/29 10:34:26;;;;;;;25.00;13.27;;;12.20;99.90;;;;;;5121445;28;20089;-96
2022/10/29 10:37:01;;;;;;;22.58;12.40;;;12.20;99.90;;;;;;5125559;28;20040;-96
2022/10/29 10:39:30;;;;;;;18.45;10.82;;;12.20;99.90;;;;;;5116402;28;20020;-94
2022/10/29 10:42:00;;;;;;;24.67;12.93;;;12.20;99.90;;;;;;5109495;28;20024;-96
2022/10/29 10:44:27;;;;;;;19.50;10.05;;;12.20;99.90;;;;;;5113152;28;20008;-96
2022/10/29 10:46:56;;;;;;;21.77;11.07;;;12.20;99.90;;;;;;5109301;28;20016;-95
2022/10/29 10:49:33;;;;;;;19.08;10.68;;;12.20;99.90;;;;;;5113971;28;20024;-95
2022/10/29 10:52:01;;;;;;;21.98;12.00;;;12.20;99.90;;;;;;5116351;28;20020;-95
2022/10/29 10:54:41;;;;;;;22.42;11.45;;;12.20;99.90;;;;;;5117919;28;20023;-95
2022/10/29 10:57:09;;;;;;;19.23;10.82;;;12.20;99.90;;;;;;5122741;28;20047;-94
2022/10/29 11:00:13;;;;;;;17.92;11.50;;;12.20;99.90;;;;;;5101244;28;20032;-93
2022/10/29 11:02:45;;;;;;;22.23;12.35;;;12.30;99.90;;;;;;5083666;28;20024;-95
2022/10/29 11:05:28;;;;;;;25.23;12.63;;;12.30;99.90;;;;;;5102952;28;20633;-95
2022/10/29 11:08:16;;;;;;;21.98;11.95;;;12.40;99.90;;;;;;5091146;28;20036;-93
2022/10/29 11:10:53;;;;;;;23.48;13.23;;;12.40;99.90;;;;;;5126533;27;20023;-94
2022/10/29 11:13:26;;;;;;;26.90;12.15;;;12.50;99.90;;;;;;5105391;28;20024;-94
2022/10/29 11:16:07;;;;;;;19.65;11.50;;;12.50;99.90;;;;;;5113682;27;20031;-94
2022/10/29 11:18:48;;;;;;;22.52;13.15;;;12.60;99.90;;;;;;5115356;27;20043;-95
2022/10/29 11:21:28;;;;;;;26.30;12.85;;;12.60;99.90;;;;;;5101193;28;20032;-93
2022/10/29 11:24:12;;;;;;;23.48;13.48;;;12.60;99.90;;;;;;5099694;28;20034;-93
2022/10/29 11:26:56;;;;;;;23.63;13.13;;;12.70;99.90;;;;;;5104104;28;20038;-95
2022/10/29 11:29:38;;;;;;;20.83;12.73;;;12.70;99.90;;;;;;5113315;27;20047;-95
2022/10/29 11:32:22;;;;;;;21.42;14.65;;;12.70;99.90;;;;;;5113938;28;20020;-94
2022/10/29 11:34:55;;;;;;;23.40;14.13;;;12.70;99.90;;;;;;5113036;28;20055;-95
2022/10/29 11:37:36;;;;;;;34.60;14.20;;;12.80;99.90;;;;;;5107986;28;20032;-94
2022/10/29 11:40:15;;;;;;;27.17;12.95;;;12.80;99.90;;;;;;5109385;27;20040;-93
2022/10/29 11:42:44;;;;;;;31.63;15.02;;;12.80;99.90;;;;;;5107177;28;20020;-94
2022/10/29 11:45:14;;;;;;;28.00;14.13;;;12.80;99.90;;;;;;5104457;28;20024;-93
2022/10/29 11:48:47;;;;;;;29.83;16.13;;;12.80;99.90;;;;;;5104107;28;20043;-93
2022/10/29 11:51:52;;;;;;;26.95;14.40;;;12.80;99.90;;;;;;5035951;28;20034;-94
2022/10/29 11:54:36;;;;;;;36.03;16.60;;;12.80;99.90;;;;;;5036237;28;20041;-96
2022/10/29 11:57:52;;;;;;;32.80;16.30;;;12.90;99.90;;;;;;5040452;28;20036;-95
2022/10/29 12:00:26;;;;;;;26.25;15.10;;;12.90;99.90;;;;;;5050462;28;20037;-95
2022/10/29 12:03:11;;;;;;;36.63;17.58;;;12.90;99.90;;;;;;5067955;28;20012;-95
2022/10/29 12:05:55;;;;;;;37.60;18.20;;;13.00;99.90;;;;;;5056246;28;20048;-96
2022/10/29 12:08:27;;;;;;;36.35;18.20;;;13.00;99.90;;;;;;5056286;28;20132;-96
2022/10/29 12:11:11;;;;;;;34.00;17.42;;;13.10;99.90;;;;;;5056249;28;20044;-94
2022/10/29 12:13:54;;;;;;;31.00;18.33;;;13.10;99.90;;;;;;5051283;28;20033;-95
2022/10/29 12:16:35;;;;;;;38.03;18.92;;;13.10;99.90;;;;;;5054651;28;20044;-94
2022/10/29 12:19:23;;;;;;;40.83;19.70;;;13.10;99.90;;;;;;5074209;28;20037;-93
2022/10/29 12:22:25;;;;;;;44.75;20.48;;;13.10;99.90;;;;;;5058245;28;20045;-96
2022/10/29 12:25:25;;;;;;;35.33;18.50;;;13.10;99.90;;;;;;5089815;28;20020;-95
2022/10/29 12:28:22;;;;;;;37.97;20.40;;;13.20;99.90;;;;;;5122751;28;20048;-95
2022/10/29 12:31:13;;;;;;;35.95;19.65;;;13.20;99.90;;;;;;5112852;28;20026;-94
2022/10/29 12:33:58;;;;;;;41.03;20.80;;;13.20;99.90;;;;;;5103118;28;20449;-93
2022/10/29 12:37:11;;;;;;;40.85;19.25;;;13.30;99.90;;;;;;5084753;28;20028;-95
2022/10/29 12:39:54;;;;;;;54.33;20.95;;;13.30;99.90;;;;;;5065551;28;20121;-94
2022/10/29 12:42:48;;;;;;;37.65;20.52;;;13.40;99.90;;;;;;5081469;28;20487;-94
2022/10/29 12:46:12;;;;;;;42.80;19.05;;;13.40;99.90;;;;;;5098957;28;20523;-94
2022/10/29 12:49:35;;;;;;;39.17;20.55;;;13.50;99.90;;;;;;5099238;28;20469;-93
2022/10/29 12:52:19;;;;;;;47.65;20.98;;;13.60;99.90;;;;;;5081042;28;20032;-96
2022/10/29 12:55:06;;;;;;;42.95;20.77;;;13.70;99.90;;;;;;5098293;28;20024;-95
2022/10/29 12:57:45;;;;;;;42.03;21.10;;;13.70;99.90;;;;;;5081375;28;20040;-93
2022/10/29 13:00:23;;;;;;;36.58;19.27;;;13.80;99.90;;;;;;5112970;28;20020;-95
2022/10/29 13:02:55;;;;;;;44.03;20.02;;;13.80;99.90;;;;;;5102420;28;20016;-94
2022/10/29 13:05:42;;;;;;;37.58;19.65;;;13.90;99.90;;;;;;5104917;28;20032;-96
2022/10/29 13:08:16;;;;;;;42.92;21.45;;;13.90;99.90;;;;;;5100188;28;20615;-95
2022/10/29 13:10:54;;;;;;;36.08;19.30;;;13.90;99.90;;;;;;5098504;28;20028;-94
2022/10/29 13:13:42;;;;;;;41.17;20.85;;;13.90;99.90;;;;;;5112451;28;20038;-95
2022/10/29 13:16:20;;;;;;;39.92;20.35;;;13.90;99.90;;;;;;5122534;28;20036;-94
2022/10/29 13:19:03;;;;;;;45.47;22.42;;;13.90;99.90;;;;;;5126347;28;20035;-95